Time;durP1;ratioP1;P1;durP2;ratioP2;P2;SDS_P1;SDS_P2;PMS_P1;PMS_P2;Temp;Humidity;BMP_temperature;BMP_pressure;BME280_temperature;BME280_humidity;BME280_pressure;Samples;Min_cycle;Max_cycle;Signal;HPM_P1;HPM_P2
2022/09/17 00:02:12;;;;;;;1.03;0.60;;;10.90;99.90;;;;;;5073486;28;20448;-69
2022/09/17 00:04:40;;;;;;;1.67;0.73;;;11.00;99.90;;;;;;5072579;28;20459;-69
2022/09/17 00:07:07;;;;;;;1.30;0.73;;;11.00;99.90;;;;;;5072859;28;20453;-69
2022/09/17 00:09:34;;;;;;;2.17;0.90;;;11.10;99.90;;;;;;5072324;28;20484;-69
2022/09/17 00:12:01;;;;;;;1.13;0.90;;;11.00;99.90;;;;;;5073281;28;20449;-69
2022/09/17 00:14:28;;;;;;;1.30;0.83;;;11.10;99.90;;;;;;5072874;28;20464;-69
2022/09/17 00:16:55;;;;;;;1.13;0.77;;;11.00;99.90;;;;;;5073105;28;20457;-69
2022/09/17 00:19:23;;;;;;;1.23;1.13;;;11.20;99.90;;;;;;5072147;28;20453;-69
2022/09/17 00:21:52;;;;;;;1.97;0.80;;;11.40;99.90;;;;;;5073074;28;20507;-69
2022/09/17 00:24:20;;;;;;;0.80;0.70;;;11.50;99.90;;;;;;5072708;28;20815;-68
2022/09/17 00:26:47;;;;;;;1.00;0.80;;;11.20;99.90;;;;;;5072724;28;20495;-69
2022/09/17 00:29:15;;;;;;;0.90;0.63;;;11.40;99.90;;;;;;5072549;28;20955;-69
2022/09/17 00:31:42;;;;;;;0.80;0.60;;;11.40;99.90;;;;;;5073004;28;20456;-69
2022/09/17 00:34:09;;;;;;;0.80;0.67;;;11.30;99.90;;;;;;5072652;28;20464;-69
2022/09/17 00:36:36;;;;;;;0.90;0.60;;;11.40;99.90;;;;;;5071972;28;20945;-69
2022/09/17 00:39:06;;;;;;;0.80;0.60;;;11.40;99.90;;;;;;5074242;28;20445;-68
2022/09/17 00:41:35;;;;;;;0.90;0.60;;;11.20;99.90;;;;;;5076371;28;20444;-69
2022/09/17 00:44:17;;;;;;;2.00;0.50;;;11.20;99.90;;;;;;5082699;28;20449;-68
2022/09/17 00:46:45;;;;;;;1.23;0.73;;;11.20;99.90;;;;;;5085429;28;20460;-69
2022/09/17 00:49:16;;;;;;;1.07;0.70;;;11.30;99.90;;;;;;5085147;28;20576;-69
2022/09/17 00:51:48;;;;;;;1.40;0.80;;;11.10;99.90;;;;;;5087672;28;20455;-69
2022/09/17 00:54:16;;;;;;;0.70;0.53;;;11.30;99.90;;;;;;5087502;28;20475;-66
2022/09/17 00:56:44;;;;;;;1.67;1.47;;;11.40;99.90;;;;;;5088648;28;20520;-69
2022/09/17 00:59:11;;;;;;;1.07;0.80;;;11.40;99.90;;;;;;5091405;28;20460;-69
2022/09/17 01:01:38;;;;;;;1.20;0.60;;;11.20;99.90;;;;;;5090252;28;20530;-69
2022/09/17 01:04:05;;;;;;;0.70;0.70;;;11.10;99.90;;;;;;5089666;28;20844;-69
2022/09/17 01:06:35;;;;;;;3.07;0.70;;;10.90;99.90;;;;;;5088299;28;20453;-70
2022/09/17 01:09:19;;;;;;;1.00;0.90;;;11.00;99.90;;;;;;5081929;28;20461;-68
2022/09/17 01:12:11;;;;;;;0.87;0.67;;;10.80;99.90;;;;;;5078244;28;20437;-69
2022/09/17 01:15:00;;;;;;;1.17;0.90;;;10.80;99.90;;;;;;5075568;28;20978;-70
2022/09/17 01:17:32;;;;;;;0.90;0.70;;;10.60;99.90;;;;;;5072667;28;20458;-69
2022/09/17 01:20:28;;;;;;;1.60;1.00;;;10.50;99.90;;;;;;5073886;28;20450;-69
2022/09/17 01:23:10;;;;;;;0.90;0.80;;;10.50;99.90;;;;;;5072173;28;20463;-68
2022/09/17 01:25:49;;;;;;;0.90;0.70;;;10.40;99.90;;;;;;5071178;28;20440;-68
2022/09/17 01:28:34;;;;;;;1.23;0.80;;;10.30;99.90;;;;;;5070627;28;20450;-66
2022/09/17 01:31:22;;;;;;;1.00;0.70;;;10.30;99.90;;;;;;5071713;28;20617;-68
2022/09/17 01:34:01;;;;;;;1.47;0.77;;;10.20;99.90;;;;;;5071554;28;20801;-68
2022/09/17 01:36:41;;;;;;;1.03;0.80;;;10.30;99.90;;;;;;5070843;28;20435;-68
2022/09/17 01:39:17;;;;;;;1.00;0.73;;;10.40;99.90;;;;;;5070912;28;20467;-69
2022/09/17 01:41:50;;;;;;;1.43;0.90;;;10.60;99.90;;;;;;5071916;28;20454;-68
2022/09/17 01:44:26;;;;;;;2.70;0.90;;;10.70;99.90;;;;;;5071009;28;20454;-68
2022/09/17 01:47:00;;;;;;;0.70;0.50;;;10.60;99.90;;;;;;5071828;28;20451;-69
2022/09/17 01:49:27;;;;;;;1.43;0.90;;;10.70;99.90;;;;;;5070491;28;20770;-68
2022/09/17 01:51:55;;;;;;;0.90;0.80;;;10.80;99.90;;;;;;5071049;28;20931;-68
2022/09/17 01:54:25;;;;;;;1.00;0.90;;;10.70;99.90;;;;;;5070604;28;20457;-69
2022/09/17 01:56:56;;;;;;;1.20;1.07;;;10.70;99.90;;;;;;5071504;28;20466;-68
2022/09/17 01:59:29;;;;;;;1.00;0.60;;;10.80;99.90;;;;;;5070468;28;20451;-69
2022/09/17 02:02:03;;;;;;;1.23;0.70;;;10.70;99.90;;;;;;5070853;28;20455;-69
2022/09/17 02:04:33;;;;;;;1.13;0.70;;;10.80;99.90;;;;;;5070454;28;20456;-69
2022/09/17 02:07:05;;;;;;;1.10;0.83;;;10.80;99.90;;;;;;5070921;28;20450;-69
2022/09/17 02:09:36;;;;;;;1.20;0.90;;;10.80;99.90;;;;;;5069575;28;20454;-69
2022/09/17 02:12:11;;;;;;;2.83;0.80;;;10.70;99.90;;;;;;5071187;28;20449;-69
2022/09/17 02:14:42;;;;;;;1.73;1.00;;;10.80;99.90;;;;;;5070820;28;20454;-69
2022/09/17 02:17:16;;;;;;;1.10;1.00;;;10.70;99.90;;;;;;5070830;28;20938;-69
2022/09/17 02:19:44;;;;;;;1.10;0.87;;;10.70;99.90;;;;;;5070802;28;20770;-69
2022/09/17 02:22:19;;;;;;;1.30;1.00;;;10.70;99.90;;;;;;5070453;28;21000;-69
2022/09/17 02:24:53;;;;;;;2.10;1.20;;;10.60;99.90;;;;;;5071109;28;20448;-69
2022/09/17 02:27:27;;;;;;;1.07;0.77;;;10.90;99.90;;;;;;5069863;28;20574;-68
2022/09/17 02:29:54;;;;;;;1.20;0.93;;;10.80;99.90;;;;;;5070733;28;20563;-69
2022/09/17 02:32:23;;;;;;;1.13;1.03;;;10.90;99.90;;;;;;5070159;28;20459;-68
2022/09/17 02:34:50;;;;;;;1.03;0.80;;;10.80;99.90;;;;;;5070682;28;20457;-69
2022/09/17 02:37:17;;;;;;;1.20;0.90;;;10.80;99.90;;;;;;5069859;28;20460;-69
2022/09/17 02:39:44;;;;;;;1.00;0.80;;;10.90;99.90;;;;;;5070696;28;20533;-69
2022/09/17 02:42:22;;;;;;;1.80;0.90;;;10.90;99.90;;;;;;5070819;28;20446;-69
2022/09/17 02:44:58;;;;;;;2.27;0.83;;;11.00;99.90;;;;;;5070425;28;20450;-69
2022/09/17 02:47:51;;;;;;;1.20;0.90;;;10.90;99.90;;;;;;5069758;28;20448;-68
2022/09/17 02:50:43;;;;;;;1.47;1.03;;;10.80;99.90;;;;;;5069798;28;20990;-68
2022/09/17 02:53:23;;;;;;;1.03;0.77;;;10.70;99.90;;;;;;5070656;28;20449;-69
2022/09/17 02:55:57;;;;;;;0.90;0.60;;;10.60;99.90;;;;;;5070754;28;20528;-68
2022/09/17 02:58:28;;;;;;;1.23;0.80;;;10.50;99.90;;;;;;5069459;28;20538;-68
2022/09/17 03:00:57;;;;;;;1.20;1.00;;;10.60;99.90;;;;;;5070368;28;20446;-68
2022/09/17 03:03:31;;;;;;;1.43;1.00;;;10.60;99.90;;;;;;5069824;28;20452;-69
2022/09/17 03:05:58;;;;;;;1.47;0.93;;;10.60;99.90;;;;;;5070433;28;20446;-68
2022/09/17 03:08:29;;;;;;;1.10;0.70;;;10.50;99.90;;;;;;5069369;28;20461;-69
2022/09/17 03:10:56;;;;;;;1.87;1.27;;;10.50;99.90;;;;;;5070508;28;20491;-68
2022/09/17 03:13:23;;;;;;;6.63;0.93;;;10.40;99.90;;;;;;5069556;28;20962;-68
2022/09/17 03:15:50;;;;;;;1.50;0.80;;;10.40;99.90;;;;;;5069989;28;20446;-68
2022/09/17 03:18:17;;;;;;;3.03;1.03;;;10.40;99.90;;;;;;5069617;28;20450;-68
2022/09/17 03:20:46;;;;;;;1.60;0.87;;;10.30;99.90;;;;;;5070165;28;20453;-68
2022/09/17 03:23:13;;;;;;;1.50;0.93;;;10.40;99.90;;;;;;5070303;28;20496;-68
2022/09/17 03:25:39;;;;;;;1.20;0.93;;;10.20;99.90;;;;;;5055457;28;20451;-68
2022/09/17 03:28:06;;;;;;;1.23;0.80;;;10.10;99.90;;;;;;5069469;28;20461;-68
2022/09/17 03:30:33;;;;;;;2.70;1.30;;;10.20;99.90;;;;;;5055886;28;20840;-68
2022/09/17 03:33:00;;;;;;;1.00;0.80;;;10.10;99.90;;;;;;5069794;28;20449;-68
2022/09/17 03:35:26;;;;;;;1.53;1.10;;;10.10;99.90;;;;;;5061038;28;20446;-68
2022/09/17 03:37:55;;;;;;;1.10;0.83;;;10.20;99.90;;;;;;5073092;28;20459;-68
2022/09/17 03:40:21;;;;;;;1.93;0.87;;;10.50;99.90;;;;;;5072756;28;21038;-68
2022/09/17 03:42:48;;;;;;;3.43;1.23;;;10.60;99.90;;;;;;5073647;28;20443;-69
2022/09/17 03:45:15;;;;;;;1.57;0.80;;;10.60;99.90;;;;;;5073761;28;20451;-66
2022/09/17 03:47:42;;;;;;;2.03;0.80;;;10.50;99.90;;;;;;5073309;28;20457;-69
2022/09/17 03:50:09;;;;;;;1.97;1.20;;;10.70;99.90;;;;;;5073210;28;20482;-68
2022/09/17 03:52:36;;;;;;;0.87;0.60;;;10.40;99.90;;;;;;5072840;28;20469;-68
2022/09/17 03:55:05;;;;;;;3.20;1.07;;;10.30;99.90;;;;;;5073404;28;20792;-68
2022/09/17 03:57:31;;;;;;;1.67;1.10;;;10.40;99.90;;;;;;5072569;28;20465;-68
2022/09/17 03:59:58;;;;;;;1.50;1.13;;;10.50;99.90;;;;;;5073038;28;20458;-68
2022/09/17 04:02:25;;;;;;;0.93;0.70;;;10.40;99.90;;;;;;5072820;28;20475;-68
2022/09/17 04:04:52;;;;;;;1.13;0.67;;;10.30;99.90;;;;;;5071962;28;20451;-67
2022/09/17 04:07:19;;;;;;;1.03;0.83;;;10.30;99.90;;;;;;5071874;28;20451;-68
2022/09/17 04:09:46;;;;;;;1.30;0.80;;;10.40;99.90;;;;;;5073123;28;20449;-68
2022/09/17 04:12:15;;;;;;;3.10;1.00;;;10.40;99.90;;;;;;5073374;28;20484;-69
2022/09/17 04:14:42;;;;;;;2.50;0.80;;;10.30;99.90;;;;;;5072590;28;20505;-68
2022/09/17 04:17:08;;;;;;;1.37;1.00;;;10.50;99.90;;;;;;5073053;28;20463;-68
2022/09/17 04:19:35;;;;;;;0.93;0.70;;;10.30;99.90;;;;;;5072018;28;21271;-67
2022/09/17 04:22:02;;;;;;;2.70;1.07;;;10.20;99.90;;;;;;5072617;28;20452;-68
2022/09/17 04:24:29;;;;;;;1.30;0.77;;;10.20;99.90;;;;;;5072397;28;20451;-68
2022/09/17 04:26:55;;;;;;;1.20;1.10;;;10.00;99.90;;;;;;5072225;28;20488;-68
2022/09/17 04:29:24;;;;;;;4.23;0.93;;;10.00;99.90;;;;;;5071963;28;20801;-68
2022/09/17 04:31:51;;;;;;;1.50;0.80;;;10.00;99.90;;;;;;5072487;28;20603;-68
2022/09/17 04:34:18;;;;;;;3.87;0.90;;;9.90;99.90;;;;;;5072356;28;20525;-68
2022/09/17 04:36:45;;;;;;;1.30;0.83;;;9.80;99.90;;;;;;5072458;28;20444;-68
2022/09/17 04:39:12;;;;;;;1.73;0.90;;;10.00;99.90;;;;;;5072027;28;20983;-68
2022/09/17 04:41:39;;;;;;;1.00;0.80;;;10.00;99.90;;;;;;5071710;28;20463;-68
2022/09/17 04:44:06;;;;;;;1.40;0.90;;;10.30;99.90;;;;;;5072645;28;20455;-68
2022/09/17 04:46:34;;;;;;;2.90;1.43;;;10.20;99.90;;;;;;5071626;28;20452;-68
2022/09/17 04:49:01;;;;;;;1.17;0.60;;;10.30;99.90;;;;;;5063487;28;20463;-68
2022/09/17 04:51:27;;;;;;;3.10;0.80;;;10.10;99.90;;;;;;5071535;28;20485;-68
2022/09/17 04:53:54;;;;;;;1.40;1.10;;;10.00;99.90;;;;;;5072218;28;20443;-68
2022/09/17 04:56:21;;;;;;;1.60;0.77;;;10.10;99.90;;;;;;5070937;28;20463;-68
2022/09/17 04:58:48;;;;;;;1.77;0.70;;;10.00;99.90;;;;;;5071564;28;20454;-68
2022/09/17 05:01:17;;;;;;;1.97;0.93;;;10.10;99.90;;;;;;5072185;28;20463;-66
2022/09/17 05:03:46;;;;;;;1.30;0.90;;;10.20;99.90;;;;;;5071858;28;20460;-68
2022/09/17 05:06:12;;;;;;;2.13;0.80;;;10.10;99.90;;;;;;5068110;28;20459;-67
2022/09/17 05:08:39;;;;;;;7.80;1.00;;;10.10;99.90;;;;;;5071078;28;20600;-68
2022/09/17 05:11:06;;;;;;;1.43;1.10;;;10.10;99.90;;;;;;5066966;28;20980;-67
2022/09/17 05:13:33;;;;;;;1.93;0.90;;;10.00;99.90;;;;;;5070948;28;20454;-67
2022/09/17 05:16:00;;;;;;;6.43;0.90;;;10.20;99.90;;;;;;5071848;28;20450;-68
2022/09/17 05:18:27;;;;;;;1.47;0.73;;;10.10;99.90;;;;;;5070714;28;20800;-68
2022/09/17 05:20:55;;;;;;;0.87;0.73;;;10.10;99.90;;;;;;5071587;28;20463;-68
2022/09/17 05:23:22;;;;;;;5.07;1.53;;;10.30;99.90;;;;;;5070751;28;20456;-68
2022/09/17 05:25:49;;;;;;;0.97;0.80;;;10.20;99.90;;;;;;5071372;28;20537;-68
2022/09/17 05:28:16;;;;;;;3.43;1.53;;;10.10;99.90;;;;;;5070937;28;20486;-68
2022/09/17 05:30:43;;;;;;;3.67;0.97;;;10.00;99.90;;;;;;5071491;28;20975;-68
2022/09/17 05:33:10;;;;;;;1.53;0.97;;;10.00;99.90;;;;;;5071679;28;20789;-68
2022/09/17 05:35:37;;;;;;;2.40;1.00;;;10.00;99.90;;;;;;5070926;28;20450;-68
2022/09/17 05:38:06;;;;;;;1.30;0.87;;;9.80;99.90;;;;;;5070424;28;20962;-68
2022/09/17 05:40:33;;;;;;;1.00;0.90;;;9.80;99.90;;;;;;5070914;28;20556;-68
2022/09/17 05:43:01;;;;;;;2.03;1.00;;;9.80;99.90;;;;;;5071106;28;20457;-68
2022/09/17 05:45:28;;;;;;;2.93;1.40;;;9.80;99.90;;;;;;5070554;28;20443;-68
2022/09/17 05:47:56;;;;;;;1.30;0.93;;;9.90;99.90;;;;;;5070947;28;20446;-68
2022/09/17 05:50:23;;;;;;;8.83;1.87;;;9.90;99.90;;;;;;5070576;28;20451;-68
2022/09/17 05:52:50;;;;;;;1.07;0.90;;;9.90;99.90;;;;;;5070860;28;20497;-68
2022/09/17 05:55:18;;;;;;;1.20;0.90;;;9.90;99.90;;;;;;5070867;28;20453;-67
2022/09/17 05:57:45;;;;;;;1.87;1.37;;;9.90;99.90;;;;;;5070253;28;20460;-68
2022/09/17 06:00:14;;;;;;;2.57;1.60;;;10.00;99.90;;;;;;5070913;28;20450;-67
2022/09/17 06:02:41;;;;;;;1.27;1.17;;;10.10;99.90;;;;;;5071151;28;20455;-68
2022/09/17 06:05:09;;;;;;;3.60;1.30;;;10.10;99.90;;;;;;5070735;28;20456;-68
2022/09/17 06:07:36;;;;;;;1.43;1.00;;;10.20;99.90;;;;;;5069928;28;20528;-68
2022/09/17 06:10:03;;;;;;;2.00;1.30;;;10.30;99.90;;;;;;5070686;28;20457;-68
2022/09/17 06:12:34;;;;;;;4.67;1.10;;;10.30;99.90;;;;;;5070295;28;20483;-68
2022/09/17 06:15:01;;;;;;;2.70;1.13;;;10.30;99.90;;;;;;5070570;28;20443;-68
2022/09/17 06:17:27;;;;;;;1.53;1.00;;;10.50;99.90;;;;;;5069574;28;20981;-69
2022/09/17 06:19:54;;;;;;;2.00;1.10;;;10.50;99.90;;;;;;5070710;28;20960;-67
2022/09/17 06:22:22;;;;;;;2.53;1.63;;;10.50;99.90;;;;;;5070113;28;20461;-68
2022/09/17 06:24:48;;;;;;;1.60;1.10;;;10.50;99.90;;;;;;5070941;28;20440;-68
2022/09/17 06:27:15;;;;;;;2.57;1.57;;;10.40;99.90;;;;;;5069191;28;20830;-66
2022/09/17 06:29:44;;;;;;;3.37;1.90;;;10.40;99.90;;;;;;5070919;28;20454;-68
2022/09/17 06:32:11;;;;;;;7.20;1.43;;;10.50;99.90;;;;;;5069559;28;20478;-68
2022/09/17 06:34:38;;;;;;;8.60;1.10;;;10.50;99.90;;;;;;5070238;28;20485;-68
2022/09/17 06:37:06;;;;;;;4.07;1.60;;;10.50;99.90;;;;;;5056756;28;20463;-68
2022/09/17 06:39:33;;;;;;;2.13;1.90;;;10.60;99.90;;;;;;5070282;28;20443;-67
2022/09/17 06:41:59;;;;;;;3.17;1.33;;;10.80;99.90;;;;;;5070916;28;20535;-71
2022/09/17 06:44:26;;;;;;;3.47;1.43;;;10.80;99.90;;;;;;5070440;28;20453;-69
2022/09/17 06:46:54;;;;;;;3.30;1.37;;;10.80;99.90;;;;;;5056901;28;20547;-68
2022/09/17 06:49:21;;;;;;;1.00;0.87;;;10.80;99.90;;;;;;5070226;28;20447;-68
2022/09/17 06:51:48;;;;;;;1.47;1.37;;;10.90;99.90;;;;;;5070358;28;20475;-68
2022/09/17 06:54:15;;;;;;;2.13;1.30;;;11.00;99.90;;;;;;5071097;28;20467;-68
2022/09/17 06:56:42;;;;;;;2.23;1.43;;;11.10;99.90;;;;;;5070903;28;20571;-69
2022/09/17 06:59:09;;;;;;;1.87;1.50;;;11.20;99.90;;;;;;5070356;28;20477;-68
2022/09/17 07:01:35;;;;;;;2.40;1.10;;;11.20;99.90;;;;;;5070077;28;20464;-69
2022/09/17 07:04:04;;;;;;;1.17;0.90;;;11.20;99.90;;;;;;5070894;28;20475;-69
2022/09/17 07:06:31;;;;;;;1.23;0.90;;;11.30;99.90;;;;;;5070091;28;20443;-68
2022/09/17 07:08:58;;;;;;;1.93;1.00;;;11.10;99.90;;;;;;5070893;28;20469;-71
2022/09/17 07:11:25;;;;;;;3.23;1.00;;;11.30;99.90;;;;;;5073845;28;20533;-70
2022/09/17 07:13:52;;;;;;;2.03;1.30;;;11.10;99.90;;;;;;5074542;28;20813;-70
2022/09/17 07:16:19;;;;;;;2.40;1.20;;;10.80;99.90;;;;;;5074175;28;20452;-69
2022/09/17 07:18:46;;;;;;;1.30;1.20;;;10.60;99.90;;;;;;5073314;28;20451;-67
2022/09/17 07:21:15;;;;;;;2.63;1.13;;;10.60;99.90;;;;;;5073904;28;20825;-67
2022/09/17 07:23:42;;;;;;;1.73;1.23;;;10.50;99.90;;;;;;5073989;28;20452;-67
2022/09/17 07:26:13;;;;;;;10.07;6.63;;;10.40;99.90;;;;;;5073494;28;20471;-69
2022/09/17 07:28:40;;;;;;;14.83;7.73;;;10.30;99.90;;;;;;5070713;28;20447;-69
2022/09/17 07:31:08;;;;;;;2.03;1.17;;;10.40;99.90;;;;;;5074077;28;20540;-68
2022/09/17 07:33:36;;;;;;;2.17;1.30;;;10.30;99.90;;;;;;5073371;28;20721;-68
2022/09/17 07:36:05;;;;;;;4.80;1.40;;;10.30;99.90;;;;;;5073768;28;20455;-68
2022/09/17 07:38:34;;;;;;;11.50;1.73;;;10.30;99.90;;;;;;5072862;28;20446;-67
2022/09/17 07:41:02;;;;;;;1.30;1.03;;;10.40;99.90;;;;;;5074189;28;20446;-68
2022/09/17 07:43:30;;;;;;;3.63;1.43;;;10.40;99.90;;;;;;5073184;28;20972;-67
2022/09/17 07:45:59;;;;;;;3.43;1.30;;;10.40;99.90;;;;;;5074041;28;20801;-67
2022/09/17 07:48:26;;;;;;;3.43;1.47;;;10.30;99.90;;;;;;5072783;28;20440;-67
2022/09/17 07:50:54;;;;;;;2.87;1.80;;;10.30;99.90;;;;;;5072239;28;20454;-68
2022/09/17 07:53:21;;;;;;;2.93;1.30;;;10.20;99.90;;;;;;5078560;28;20470;-67
2022/09/17 07:55:53;;;;;;;1.83;1.53;;;10.10;99.90;;;;;;5078437;28;20518;-70
2022/09/17 07:58:20;;;;;;;1.83;1.63;;;10.10;99.90;;;;;;5071875;28;20537;-69
2022/09/17 08:00:48;;;;;;;1.23;1.07;;;10.00;99.90;;;;;;5077607;28;20444;-68
2022/09/17 08:03:15;;;;;;;1.30;1.20;;;10.10;99.90;;;;;;5078837;28;20446;-69
2022/09/17 08:05:42;;;;;;;4.50;1.40;;;10.20;99.90;;;;;;5079478;28;20450;-68
2022/09/17 08:08:09;;;;;;;1.90;1.40;;;10.30;99.90;;;;;;5073255;28;20461;-71
2022/09/17 08:10:35;;;;;;;5.73;1.00;;;10.30;99.90;;;;;;5073354;28;21331;-67
2022/09/17 08:13:04;;;;;;;1.73;1.37;;;10.40;99.90;;;;;;5074321;28;20486;-69
2022/09/17 08:15:30;;;;;;;1.50;1.33;;;10.50;99.90;;;;;;5080136;28;20451;-68
2022/09/17 08:17:57;;;;;;;4.30;1.33;;;10.40;99.90;;;;;;5083715;28;20537;-70
2022/09/17 08:20:25;;;;;;;1.30;1.10;;;10.40;99.90;;;;;;5082688;28;20453;-70
2022/09/17 08:22:59;;;;;;;4.77;1.90;;;10.50;99.90;;;;;;5084302;28;20459;-70
2022/09/17 08:25:26;;;;;;;1.67;1.57;;;10.50;99.90;;;;;;5084230;28;20518;-69
2022/09/17 08:27:54;;;;;;;2.03;0.97;;;10.60;99.90;;;;;;5080462;28;20474;-71
2022/09/17 08:30:22;;;;;;;3.80;1.57;;;10.50;99.90;;;;;;5079223;28;21024;-72
2022/09/17 08:32:49;;;;;;;2.60;1.10;;;10.50;99.90;;;;;;5078904;28;20489;-69
2022/09/17 08:35:16;;;;;;;1.40;1.20;;;10.70;99.90;;;;;;5078716;28;20882;-67
2022/09/17 08:37:43;;;;;;;2.17;1.43;;;11.00;99.90;;;;;;5075909;28;20458;-69
2022/09/17 08:40:17;;;;;;;2.37;1.30;;;11.10;99.90;;;;;;5076047;28;20450;-69
2022/09/17 08:42:53;;;;;;;3.03;1.43;;;11.30;99.90;;;;;;5075564;28;20459;-69
2022/09/17 08:45:22;;;;;;;3.87;1.87;;;11.30;99.90;;;;;;5072100;28;20441;-68
2022/09/17 08:47:49;;;;;;;3.50;1.70;;;11.30;99.90;;;;;;5074482;28;20499;-68
2022/09/17 08:50:26;;;;;;;2.10;1.47;;;11.30;99.90;;;;;;5072148;28;20522;-69
2022/09/17 08:53:10;;;;;;;5.00;1.67;;;11.40;99.90;;;;;;5072141;28;20597;-69
2022/09/17 08:55:42;;;;;;;6.27;1.63;;;11.40;99.90;;;;;;5071389;28;20558;-67
2022/09/17 08:58:39;;;;;;;1.53;1.17;;;11.40;99.90;;;;;;5071635;28;20946;-69
2022/09/17 09:01:17;;;;;;;1.40;1.20;;;11.50;99.90;;;;;;5049715;28;20451;-71
2022/09/17 09:03:58;;;;;;;1.53;1.43;;;11.70;99.90;;;;;;5068133;28;20830;-71
2022/09/17 09:06:29;;;;;;;5.23;2.13;;;11.80;99.90;;;;;;5068018;28;20537;-69
2022/09/17 09:09:02;;;;;;;4.33;1.87;;;11.70;99.90;;;;;;5070566;28;20461;-68
2022/09/17 09:11:31;;;;;;;1.73;1.60;;;11.90;99.90;;;;;;5071436;28;20437;-67
2022/09/17 09:14:04;;;;;;;2.07;1.47;;;11.90;99.90;;;;;;5072284;28;20456;-68
2022/09/17 09:16:37;;;;;;;4.93;1.50;;;12.00;99.90;;;;;;5071823;28;20842;-68
2022/09/17 09:19:17;;;;;;;5.90;1.50;;;12.00;99.90;;;;;;5069930;28;20835;-67
2022/09/17 09:21:55;;;;;;;2.80;1.57;;;12.10;99.90;;;;;;5060179;28;20449;-67
2022/09/17 09:24:25;;;;;;;3.37;1.33;;;12.10;99.90;;;;;;5069034;28;20449;-66
2022/09/17 09:27:03;;;;;;;3.13;1.47;;;12.20;99.90;;;;;;5068286;28;20517;-67
2022/09/17 09:29:41;;;;;;;4.03;2.17;;;12.40;99.90;;;;;;5059410;28;20442;-67
2022/09/17 09:32:23;;;;;;;4.90;1.80;;;12.40;99.90;;;;;;5068431;28;20474;-67
2022/09/17 09:34:51;;;;;;;3.00;1.13;;;12.80;26.10;;;;;;5069275;28;20452;-68
2022/09/17 09:37:23;;;;;;;4.17;1.30;;;12.90;1.00;;;;;;5068167;28;20461;-67
2022/09/17 09:39:53;;;;;;;5.90;1.33;;;12.90;1.00;;;;;;5069132;28;20453;-67
2022/09/17 09:42:29;;;;;;;6.43;1.60;;;12.80;1.00;;;;;;5068570;28;20456;-66
2022/09/17 09:45:01;;;;;;;1.53;1.20;;;12.60;1.00;;;;;;5069158;28;20445;-67
2022/09/17 09:47:54;;;;;;;2.50;1.30;;;12.90;1.00;;;;;;5067497;28;20941;-67
2022/09/17 09:50:33;;;;;;;6.10;1.53;;;12.90;99.90;;;;;;5064185;28;20963;-67
2022/09/17 09:53:10;;;;;;;2.50;1.27;;;12.90;1.00;;;;;;5065729;28;20473;-66
2022/09/17 09:55:54;;;;;;;2.97;1.70;;;13.00;1.00;;;;;;5060521;28;20983;-66
2022/09/17 09:58:31;;;;;;;1.33;1.20;;;12.70;99.90;;;;;;5057905;28;20813;-67
2022/09/17 10:00:58;;;;;;;2.60;1.40;;;12.60;99.90;;;;;;5068897;28;20449;-67
2022/09/17 10:03:30;;;;;;;6.30;2.00;;;12.40;1.00;;;;;;5068113;28;20459;-67
2022/09/17 10:05:59;;;;;;;4.80;1.40;;;12.30;1.00;;;;;;5068166;28;20533;-67
2022/09/17 10:08:27;;;;;;;2.03;1.23;;;12.40;1.00;;;;;;5064996;28;20508;-66
2022/09/17 10:11:00;;;;;;;1.53;1.00;;;12.50;1.00;;;;;;5067620;28;20521;-67
2022/09/17 10:13:29;;;;;;;2.20;1.10;;;12.70;1.00;;;;;;5067737;28;20481;-67
2022/09/17 10:15:56;;;;;;;3.83;1.43;;;12.90;37.10;;;;;;5067973;28;20446;-68
2022/09/17 10:18:25;;;;;;;2.80;1.60;;;12.90;1.00;;;;;;5067513;28;20544;-67
2022/09/17 10:20:55;;;;;;;4.60;2.00;;;13.00;1.00;;;;;;5066840;28;20458;-67
2022/09/17 10:23:24;;;;;;;2.90;1.90;;;13.00;1.00;;;;;;5068081;28;20453;-67
2022/09/17 10:25:54;;;;;;;1.90;1.30;;;13.00;99.90;;;;;;5068582;28;20465;-68
2022/09/17 10:28:44;;;;;;;5.53;2.43;;;13.10;92.60;;;;;;5067078;28;20530;-68
2022/09/17 10:31:11;;;;;;;3.87;1.70;;;13.10;99.90;;;;;;5068743;28;20453;-67
2022/09/17 10:33:52;;;;;;;5.27;1.30;;;13.10;1.00;;;;;;5067147;28;21019;-67
2022/09/17 10:36:38;;;;;;;1.30;1.20;;;13.40;1.00;;;;;;5062976;28;20533;-67
2022/09/17 10:39:27;;;;;;;6.70;1.83;;;;;;;;;;5067088;28;20715;-66
2022/09/17 10:41:55;;;;;;;1.43;0.90;;;;;;;;;;5068127;28;20894;-66
2022/09/17 10:44:23;;;;;;;2.43;1.10;;;;;;;;;;5070442;28;20469;-66
2022/09/17 10:46:50;;;;;;;1.03;0.93;;;;;;;;;;5058501;28;20453;-65
2022/09/17 10:49:22;;;;;;;1.33;1.10;;;;;;;;;;5071375;28;20449;-68
2022/09/17 10:51:51;;;;;;;2.20;1.43;;;;;;;;;;5072111;28;20459;-67
2022/09/17 10:54:41;;;;;;;4.33;0.80;;;;;;;;;;5071494;28;20481;-70
2022/09/17 10:57:10;;;;;;;2.70;1.00;;;;;;;;;;5071819;28;20457;-70
2022/09/17 10:59:52;;;;;;;1.47;1.00;;;;;;;;;;5071635;28;20457;-66
2022/09/17 11:02:27;;;;;;;1.90;1.07;;;;;;;;;;5071394;28;20446;-68
2022/09/17 11:05:00;;;;;;;1.70;0.90;;;;;;;;;;5071645;28;20444;-66
2022/09/17 11:07:40;;;;;;;1.70;1.30;;;;;;;;;;5067750;28;20464;-68
2022/09/17 11:10:13;;;;;;;2.17;1.33;;;;;;;;;;5070094;28;20449;-65
2022/09/17 11:12:42;;;;;;;2.37;0.83;;;;;;;;;;5067298;28;20567;-67
2022/09/17 11:15:16;;;;;;;1.00;0.90;;;;;;;;;;5072787;28;20524;-69
2022/09/17 11:17:55;;;;;;;3.83;1.00;;;;;;;;;;5072163;28;20972;-65
2022/09/17 11:20:27;;;;;;;1.00;0.90;;;;;;;;;;5071008;28;20449;-65
2022/09/17 11:23:02;;;;;;;2.97;1.17;;;;;;;;;;5072153;28;20457;-72
2022/09/17 11:25:38;;;;;;;2.50;0.97;;;;;;;;;;5073306;28;20445;-72
2022/09/17 11:28:07;;;;;;;3.40;0.87;;;;;;;;;;5073834;28;20475;-72
2022/09/17 11:30:42;;;;;;;3.57;1.10;;;;;;;;;;5073226;28;20810;-72
2022/09/17 11:33:17;;;;;;;4.20;1.07;;;;;;;;;;5075741;28;20838;-73
2022/09/17 11:35:47;;;;;;;2.60;0.90;;;;;;;;;;5083458;28;20439;-72
2022/09/17 11:38:18;;;;;;;5.83;0.93;;;;;;;;;;5081109;28;20444;-72
2022/09/17 11:40:47;;;;;;;1.83;0.80;;;;;;;;;;5073057;28;20434;-72
2022/09/17 11:43:21;;;;;;;0.80;0.70;;;;;;;;;;5074118;28;20544;-72
2022/09/17 11:45:53;;;;;;;1.53;0.90;;;;;;;;;;5072568;28;20456;-73
2022/09/17 11:48:22;;;;;;;4.07;2.30;;;;;;;;;;5071837;28;20780;-72
2022/09/17 11:50:51;;;;;;;1.17;0.80;;;;;;;;;;5071771;28;20911;-72
2022/09/17 11:53:23;;;;;;;1.00;0.77;;;;;;;;;;5071309;28;20488;-73
2022/09/17 11:55:51;;;;;;;1.50;0.83;;;;;;;;;;5072439;28;20865;-73
2022/09/17 11:58:24;;;;;;;5.17;1.13;;;;;;;;;;5074027;28;20458;-74
2022/09/17 12:00:53;;;;;;;1.40;0.80;;;;;;;;;;5074993;28;20441;-70
2022/09/17 12:03:25;;;;;;;3.30;0.90;;;;;;;;;;5074154;28;20453;-74
2022/09/17 12:05:54;;;;;;;1.07;0.67;;;;;;;;;;5076305;28;20836;-74
2022/09/17 12:08:25;;;;;;;16.43;2.27;;;;;;;;;;5068507;28;20803;-74
2022/09/17 12:10:53;;;;;;;3.70;1.20;;;;;;;;;;5071458;28;20457;-74
2022/09/17 12:13:27;;;;;;;1.27;0.87;;;;;;;;;;5070741;28;21015;-72
2022/09/17 12:16:01;;;;;;;2.30;0.87;;;;;;;;;;5070229;28;20449;-73
2022/09/17 12:18:31;;;;;;;3.80;1.20;;;;;;;;;;5070333;28;20450;-73
2022/09/17 12:20:59;;;;;;;1.53;0.77;;;;;;;;;;5068739;28;20450;-73
2022/09/17 12:23:32;;;;;;;2.20;1.00;;;;;;;;;;5070540;28;20806;-73
2022/09/17 12:26:03;;;;;;;1.57;0.60;;;;;;;;;;5070582;28;20998;-71
2022/09/17 12:28:32;;;;;;;1.93;1.00;;;;;;;;;;5066525;28;20442;-73
2022/09/17 12:31:04;;;;;;;2.17;1.37;;;;;;;;;;5070302;28;20477;-71
2022/09/17 12:33:34;;;;;;;2.60;0.90;;;;;;;;;;5069764;28;21128;-72
2022/09/17 12:36:11;;;;;;;5.57;1.27;;;;;;;;;;5070861;28;20533;-72
2022/09/17 12:39:00;;;;;;;3.10;1.00;;;;;;;;;;5069447;28;20445;-70
2022/09/17 12:41:34;;;;;;;1.57;0.90;;;;;;;;;;5065406;28;20553;-72
2022/09/17 12:44:11;;;;;;;1.73;0.97;;;;;;;;;;5070526;28;20799;-70
2022/09/17 12:46:46;;;;;;;1.20;0.90;;;;;;;;;;5069561;28;20488;-70
2022/09/17 12:49:32;;;;;;;4.87;0.90;;;;;;;;;;5070068;28;20956;-70
2022/09/17 12:52:01;;;;;;;4.27;1.30;;;;;;;;;;5070269;28;20944;-70
2022/09/17 12:54:41;;;;;;;1.10;0.70;;;;;;;;;;5069346;28;20840;-73
2022/09/17 12:57:12;;;;;;;1.30;1.20;;;;;;;;;;5069551;28;20468;-70
2022/09/17 12:59:44;;;;;;;1.90;1.20;;;;;;;;;;5068776;28;20546;-69
2022/09/17 13:02:17;;;;;;;1.67;1.13;;;;;;;;;;5069490;28;20453;-71
2022/09/17 13:04:57;;;;;;;3.07;1.20;;;;;;;;;;5070047;28;20454;-72
2022/09/17 13:07:39;;;;;;;1.77;1.20;;;;;;;;;;5066582;28;20445;-72
2022/09/17 13:10:37;;;;;;;7.27;1.10;;;13.40;1.00;;;;;;5061255;28;20457;-70
2022/09/17 13:13:14;;;;;;;3.00;1.13;;;11.60;99.90;;;;;;5069456;28;20481;-69
2022/09/17 13:15:52;;;;;;;1.67;0.70;;;11.20;99.90;;;;;;5069503;28;20448;-69
2022/09/17 13:18:27;;;;;;;1.10;0.80;;;11.00;99.90;;;;;;5066805;28;20453;-69
2022/09/17 13:21:13;;;;;;;0.70;0.60;;;11.00;99.90;;;;;;5058466;28;20461;-69
2022/09/17 13:23:43;;;;;;;1.57;1.10;;;11.10;99.90;;;;;;5065031;28;20459;-69
2022/09/17 13:26:15;;;;;;;3.93;1.10;;;11.10;99.90;;;;;;5069011;28;20490;-69
2022/09/17 13:28:46;;;;;;;1.53;1.13;;;11.50;99.90;;;;;;5069105;28;20483;-69